Time;durP1;ratioP1;P1;durP2;ratioP2;P2;SDS_P1;SDS_P2;PMS_P1;PMS_P2;Temp;Humidity;BMP_temperature;BMP_pressure;BME280_temperature;BME280_humidity;BME280_pressure;Samples;Min_cycle;Max_cycle;Signal;HPM_P1;HPM_P2
2022/12/18 00:02:00;;;;;;;84.10;21.77;;;-5.50;90.60;;;;;;5010831;28;20956;-60
2022/12/18 00:04:28;;;;;;;49.90;17.57;;;-5.40;90.70;;;;;;5011505;28;20473;-59
2022/12/18 00:06:56;;;;;;;44.07;16.20;;;-5.30;90.60;;;;;;5012284;28;21081;-59
2022/12/18 00:09:23;;;;;;;58.33;19.33;;;-5.20;90.50;;;;;;5013228;28;20546;-59
2022/12/18 00:11:50;;;;;;;44.00;15.17;;;;;;;;;;5010128;28;21024;-59
2022/12/18 00:14:17;;;;;;;48.47;14.10;;;;;;;;;;5013687;28;20477;-59
2022/12/18 00:16:45;;;;;;;56.67;14.97;;;-5.20;90.20;;;;;;5011735;28;21193;-59
2022/12/18 00:19:12;;;;;;;42.80;14.67;;;-5.50;90.00;;;;;;5014128;28;20473;-59
2022/12/18 00:21:43;;;;;;;68.00;19.63;;;-5.20;90.30;;;;;;5011076;28;20481;-60
2022/12/18 00:24:11;;;;;;;32.67;10.73;;;-5.20;90.20;;;;;;5013342;28;20796;-59
2022/12/18 00:26:39;;;;;;;101.83;30.97;;;-5.20;90.30;;;;;;5009867;28;20496;-60
2022/12/18 00:29:07;;;;;;;43.07;11.70;;;;;;;;;;5014494;28;20526;-60
2022/12/18 00:31:34;;;;;;;52.53;16.40;;;;;;;;;;5017105;28;20481;-58
2022/12/18 00:34:01;;;;;;;48.30;14.37;;;-5.30;89.70;;;;;;5013364;28;20488;-60
2022/12/18 00:36:31;;;;;;;37.07;13.63;;;-5.20;90.00;;;;;;5012844;28;20997;-60
2022/12/18 00:38:59;;;;;;;32.97;14.40;;;-5.20;90.10;;;;;;5012437;28;20473;-59
2022/12/18 00:44:14;;;;;;;43.97;11.97;;;-5.10;90.10;;;;;;5010995;28;20549;-59
2022/12/18 00:46:41;;;;;;;66.03;21.50;;;-5.10;90.00;;;;;;5011837;28;20924;-59
2022/12/18 00:49:08;;;;;;;43.73;15.70;;;-5.00;90.00;;;;;;5012812;28;20490;-59
2022/12/18 00:51:35;;;;;;;47.13;17.03;;;-5.10;89.20;;;;;;5010088;28;20647;-59
2022/12/18 00:54:02;;;;;;;34.50;13.77;;;-5.00;89.40;;;;;;5011742;28;20504;-59
2022/12/18 00:56:30;;;;;;;46.80;20.57;;;;;;;;;;5014068;28;20924;-59
2022/12/18 00:58:57;;;;;;;51.07;17.30;;;;;;;;;;5019614;28;20697;-59
2022/12/18 01:01:24;;;;;;;29.00;13.07;;;;;;;;;;5010341;28;20496;-59
2022/12/18 01:03:51;;;;;;;57.43;15.07;;;-5.00;88.70;;;;;;5012071;28;20560;-60
2022/12/18 01:06:18;;;;;;;46.57;15.90;;;-5.10;88.90;;;;;;5018417;28;21003;-60
2022/12/18 01:08:45;;;;;;;54.93;18.83;;;-5.10;88.90;;;;;;5015825;28;21080;-59
2022/12/18 01:11:14;;;;;;;50.70;13.40;;;-5.10;89.50;;;;;;5027562;28;20467;-58
2022/12/18 01:13:42;;;;;;;58.07;18.03;;;-5.10;89.10;;;;;;5017257;28;20489;-59
2022/12/18 01:16:12;;;;;;;41.83;14.43;;;-5.10;89.00;;;;;;5011211;28;21002;-59
2022/12/18 01:18:38;;;;;;;55.80;19.83;;;-5.20;88.60;;;;;;5011221;28;20481;-59
2022/12/18 01:21:07;;;;;;;40.57;16.30;;;;;;;;;;5011406;28;20473;-59
2022/12/18 01:23:34;;;;;;;63.83;21.93;;;;;;;;;;5004038;28;20481;-59
2022/12/18 01:26:05;;;;;;;39.40;15.33;;;-5.10;88.80;;;;;;5010875;28;20784;-59
2022/12/18 01:28:32;;;;;;;46.83;15.37;;;-5.20;88.80;;;;;;5016213;28;20481;-59
2022/12/18 01:31:10;;;;;;;47.70;15.50;;;;;;;;;;5009965;28;20473;-59
2022/12/18 01:33:37;;;;;;;70.90;20.47;;;;;;;;;;5004911;28;20488;-58
2022/12/18 01:36:04;;;;;;;35.50;15.20;;;;;;;;;;5012064;28;20473;-59
2022/12/18 01:38:31;;;;;;;53.77;21.37;;;-4.50;89.60;;;;;;5015486;28;20477;-60
2022/12/18 01:40:58;;;;;;;42.03;15.13;;;-5.10;88.60;;;;;;5009263;28;20477;-58
2022/12/18 01:43:40;;;;;;;41.67;14.00;;;;;;;;;;5016071;28;20885;-59
2022/12/18 01:46:08;;;;;;;70.57;20.60;;;-5.10;89.50;;;;;;5015871;28;20472;-58
2022/12/18 01:48:35;;;;;;;66.03;20.97;;;-5.10;89.40;;;;;;5031505;28;20499;-58
2022/12/18 01:51:02;;;;;;;40.00;13.60;;;-5.00;89.30;;;;;;5030016;28;21047;-58
2022/12/18 01:53:29;;;;;;;26.70;11.43;;;-5.00;89.40;;;;;;5029460;28;20476;-59
2022/12/18 01:55:57;;;;;;;40.20;15.17;;;;;;;;;;5026714;28;20480;-59
2022/12/18 01:58:32;;;;;;;43.57;15.73;;;-4.90;90.00;;;;;;5029915;28;20476;-59
2022/12/18 02:01:00;;;;;;;62.90;17.90;;;;;;;;;;5033922;28;20487;-59
2022/12/18 02:03:28;;;;;;;61.77;17.80;;;-4.80;89.70;;;;;;5035750;28;21302;-60
2022/12/18 02:06:01;;;;;;;52.23;15.93;;;-4.80;89.50;;;;;;5031483;28;20491;-60
2022/12/18 02:08:34;;;;;;;37.40;14.00;;;-4.70;89.80;;;;;;5039352;28;20953;-59
2022/12/18 02:11:05;;;;;;;43.33;15.53;;;-4.70;89.60;;;;;;5022006;28;20480;-60
2022/12/18 02:13:39;;;;;;;50.73;18.80;;;-4.70;89.50;;;;;;5014420;28;20476;-59
2022/12/18 02:16:15;;;;;;;48.73;17.73;;;-4.70;89.40;;;;;;5009429;28;20475;-59
2022/12/18 02:18:49;;;;;;;46.87;18.00;;;-4.80;89.00;;;;;;5032015;28;20515;-59
2022/12/18 02:21:27;;;;;;;46.67;15.60;;;-4.80;88.90;;;;;;5018335;28;20496;-60
2022/12/18 02:23:58;;;;;;;54.97;16.60;;;-4.80;88.60;;;;;;5025133;28;21569;-58
2022/12/18 02:26:31;;;;;;;32.33;13.53;;;-4.90;88.00;;;;;;5015462;28;20476;-60
2022/12/18 02:29:04;;;;;;;34.67;13.70;;;-4.90;88.10;;;;;;5014636;28;20488;-59
2022/12/18 02:31:36;;;;;;;66.07;18.13;;;-5.10;87.30;;;;;;5017565;28;20473;-59
2022/12/18 02:34:06;;;;;;;58.77;15.43;;;-5.20;87.40;;;;;;5018004;28;20780;-58
2022/12/18 02:36:34;;;;;;;50.70;18.17;;;-5.30;87.70;;;;;;5027083;28;20534;-59
2022/12/18 02:39:03;;;;;;;57.87;15.67;;;-5.40;88.10;;;;;;5013809;28;20480;-59
2022/12/18 02:41:31;;;;;;;32.10;12.30;;;-5.40;88.70;;;;;;5017776;28;20760;-58
2022/12/18 02:44:00;;;;;;;35.80;13.93;;;;;;;;;;5014626;28;20648;-59
2022/12/18 02:46:33;;;;;;;48.50;14.30;;;-5.50;87.80;;;;;;5014382;28;20550;-58
2022/12/18 02:49:12;;;;;;;41.53;11.67;;;-5.50;88.20;;;;;;5013497;28;20489;-58
2022/12/18 02:51:42;;;;;;;62.70;19.10;;;;;;;;;;5009869;28;20697;-59
2022/12/18 02:54:16;;;;;;;61.07;15.97;;;-5.80;88.00;;;;;;5021931;28;20468;-59
2022/12/18 02:56:51;;;;;;;65.07;18.10;;;-5.80;88.00;;;;;;5011626;28;20477;-59
2022/12/18 02:59:23;;;;;;;45.40;16.80;;;-5.80;88.80;;;;;;5017077;28;20494;-59
2022/12/18 03:01:53;;;;;;;37.47;13.03;;;-5.80;88.90;;;;;;5041661;28;20495;-59
2022/12/18 03:04:24;;;;;;;45.70;15.60;;;-5.80;89.20;;;;;;5019450;28;20784;-59
2022/12/18 03:06:55;;;;;;;43.33;14.97;;;-5.80;88.80;;;;;;5011063;28;20477;-58
2022/12/18 03:09:29;;;;;;;37.60;15.47;;;-5.70;89.10;;;;;;5014540;28;21048;-59
2022/12/18 03:14:50;;;;;;;51.70;16.07;;;;;;;;;;5017116;28;20877;-59
2022/12/18 03:17:20;;;;;;;36.53;14.47;;;-5.60;88.20;;;;;;5013785;28;20958;-58
2022/12/18 03:19:48;;;;;;;64.57;19.80;;;-5.70;87.90;;;;;;5011237;28;20488;-59
2022/12/18 03:22:17;;;;;;;41.30;13.33;;;-5.70;87.90;;;;;;5014331;28;21007;-59
2022/12/18 03:24:44;;;;;;;68.23;19.20;;;;;;;;;;5013649;28;20543;-59
2022/12/18 03:27:15;;;;;;;45.70;14.13;;;-5.80;87.80;;;;;;5013715;28;20485;-59
2022/12/18 03:29:45;;;;;;;75.77;24.03;;;;;;;;;;5012336;28;20473;-60
2022/12/18 03:32:16;;;;;;;34.27;13.80;;;-5.90;89.10;;;;;;5016908;28;20847;-59
2022/12/18 03:34:44;;;;;;;53.13;17.03;;;-5.80;89.40;;;;;;5011365;28;20474;-60
2022/12/18 03:37:11;;;;;;;50.67;16.77;;;-5.80;88.90;;;;;;5026667;28;20869;-60
2022/12/18 03:39:38;;;;;;;67.13;21.13;;;-5.80;88.90;;;;;;5030398;28;20483;-59
2022/12/18 03:42:11;;;;;;;39.00;14.67;;;-5.80;89.00;;;;;;5036704;28;20480;-59
2022/12/18 03:44:45;;;;;;;60.17;19.10;;;-5.80;88.80;;;;;;5035431;28;20475;-59
2022/12/18 03:47:17;;;;;;;40.87;14.67;;;-5.70;88.80;;;;;;5036995;28;20845;-59
2022/12/18 03:49:49;;;;;;;65.07;21.27;;;-5.70;88.30;;;;;;5015662;28;20779;-59
2022/12/18 03:52:22;;;;;;;44.13;12.80;;;-5.80;88.00;;;;;;5025583;28;20520;-59
2022/12/18 03:54:49;;;;;;;31.37;13.17;;;-5.80;88.30;;;;;;5019665;28;20785;-58
2022/12/18 03:57:19;;;;;;;40.43;12.07;;;-5.70;88.50;;;;;;5016538;28;20484;-58
2022/12/18 03:59:50;;;;;;;53.07;17.20;;;-5.80;88.10;;;;;;5019545;28;20481;-59
2022/12/18 04:02:18;;;;;;;39.33;11.10;;;;;;;;;;5028000;28;20491;-59
2022/12/18 04:04:47;;;;;;;55.40;17.67;;;-5.70;88.10;;;;;;5030817;28;20484;-59
2022/12/18 04:07:15;;;;;;;40.13;14.10;;;;;;;;;;5028133;28;20492;-59
2022/12/18 04:09:42;;;;;;;54.57;20.00;;;-5.70;87.70;;;;;;5014725;28;20485;-60
2022/12/18 04:12:09;;;;;;;36.03;11.37;;;-5.70;87.30;;;;;;5032673;28;20476;-60
2022/12/18 04:14:36;;;;;;;70.57;20.50;;;-5.60;86.60;;;;;;5035377;28;20488;-60
2022/12/18 04:17:04;;;;;;;53.77;15.70;;;-5.70;85.70;;;;;;5036617;28;20476;-59
2022/12/18 04:19:31;;;;;;;61.27;21.27;;;-5.70;84.60;;;;;;5034300;28;20888;-60
2022/12/18 04:21:58;;;;;;;44.10;12.60;;;-5.90;82.90;;;;;;5035801;28;20487;-59
2022/12/18 04:24:24;;;;;;;48.17;15.20;;;-5.90;82.70;;;;;;5036021;28;20857;-59
2022/12/18 04:26:51;;;;;;;54.70;16.00;;;-6.10;81.60;;;;;;5034614;28;20480;-59
2022/12/18 04:29:18;;;;;;;43.17;14.17;;;-6.50;80.90;;;;;;5036110;28;21173;-60
2022/12/18 04:31:44;;;;;;;61.20;18.80;;;-6.60;82.60;;;;;;5034535;28;20491;-58
2022/12/18 04:34:12;;;;;;;58.57;18.63;;;-6.60;84.10;;;;;;5036170;28;20723;-60
2022/12/18 04:36:39;;;;;;;77.03;21.07;;;-5.00;85.80;;;;;;5024080;28;20823;-59
2022/12/18 04:39:06;;;;;;;47.23;12.43;;;-6.50;84.10;;;;;;5024346;28;20534;-60
2022/12/18 04:41:32;;;;;;;53.90;18.47;;;-6.50;84.30;;;;;;5034059;28;20483;-59
2022/12/18 04:43:59;;;;;;;42.30;12.77;;;-6.40;84.10;;;;;;5034427;28;21144;-60
2022/12/18 04:46:26;;;;;;;45.10;14.57;;;-6.50;82.40;;;;;;5034950;28;20484;-59
2022/12/18 04:48:53;;;;;;;47.73;14.80;;;-6.50;82.20;;;;;;5035298;28;20480;-58
2022/12/18 04:51:21;;;;;;;44.07;13.97;;;-6.60;81.70;;;;;;5033819;28;20480;-59
2022/12/18 04:53:47;;;;;;;45.53;13.20;;;-6.70;81.20;;;;;;5032355;28;20844;-58
2022/12/18 04:56:16;;;;;;;42.30;15.60;;;-6.80;81.90;;;;;;5035328;28;20476;-58
2022/12/18 04:58:45;;;;;;;60.37;14.67;;;-6.80;81.40;;;;;;5031039;28;21055;-58
2022/12/18 05:01:13;;;;;;;41.47;14.40;;;-6.90;82.40;;;;;;5032120;28;20484;-58
2022/12/18 05:03:40;;;;;;;71.57;18.27;;;;;;;;;;5026631;28;21151;-59
2022/12/18 05:06:08;;;;;;;63.37;18.67;;;;;;;;;;5030799;28;21133;-59
2022/12/18 05:08:36;;;;;;;52.07;14.20;;;-7.30;80.30;;;;;;5029818;28;20491;-59
2022/12/18 05:11:04;;;;;;;51.53;17.00;;;-7.50;81.40;;;;;;5033019;28;20886;-59
2022/12/18 05:13:32;;;;;;;43.63;16.83;;;-7.60;82.30;;;;;;5030249;28;20488;-60
2022/12/18 05:15:59;;;;;;;36.47;11.67;;;-7.50;83.40;;;;;;5034327;28;20482;-59
2022/12/18 05:18:26;;;;;;;41.70;11.00;;;-7.50;82.70;;;;;;5036166;28;21159;-60
2022/12/18 05:20:54;;;;;;;52.23;14.27;;;;;;;;;;5029626;28;20487;-60
2022/12/18 05:23:22;;;;;;;44.50;13.57;;;-7.40;82.90;;;;;;5033460;28;20476;-60
2022/12/18 05:25:53;;;;;;;37.93;13.57;;;-7.40;82.40;;;;;;5026513;28;20876;-59
2022/12/18 05:28:20;;;;;;;47.53;13.07;;;;;;;;;;5030888;28;20484;-60
2022/12/18 05:30:50;;;;;;;57.67;17.50;;;-7.70;80.70;;;;;;5034268;28;20502;-59
2022/12/18 05:33:17;;;;;;;49.83;12.43;;;-7.70;81.90;;;;;;5018556;28;20595;-59
2022/12/18 05:35:43;;;;;;;70.90;18.27;;;-7.70;81.80;;;;;;5026553;28;20474;-59
2022/12/18 05:38:10;;;;;;;38.20;9.87;;;;;;;;;;5028117;28;20492;-59
2022/12/18 05:40:37;;;;;;;56.70;16.20;;;;;;;;;;5013439;28;20625;-59
2022/12/18 05:43:06;;;;;;;30.77;10.10;;;;;;;;;;5043377;28;21057;-60
2022/12/18 05:45:33;;;;;;;51.90;15.77;;;-7.60;83.60;;;;;;5022604;28;20981;-59
2022/12/18 05:47:59;;;;;;;46.03;13.67;;;-7.60;82.50;;;;;;5018499;28;20477;-59
2022/12/18 05:50:26;;;;;;;49.60;14.23;;;-7.60;82.40;;;;;;5019907;28;20477;-59
2022/12/18 05:52:53;;;;;;;31.97;9.60;;;-7.60;82.70;;;;;;5013545;28;21055;-60
2022/12/18 05:55:20;;;;;;;32.20;9.70;;;;;;;;;;5019143;28;20489;-59
2022/12/18 05:57:46;;;;;;;64.73;14.03;;;-7.60;83.60;;;;;;5016937;28;20481;-59
2022/12/18 06:00:16;;;;;;;53.70;15.83;;;-7.70;83.10;;;;;;5013207;28;20488;-59
2022/12/18 06:02:43;;;;;;;62.90;17.80;;;-7.70;81.80;;;;;;5018769;28;20895;-60
2022/12/18 06:05:10;;;;;;;31.00;9.70;;;-7.80;81.10;;;;;;5019499;28;20735;-59
2022/12/18 06:07:37;;;;;;;57.30;15.90;;;-7.80;81.20;;;;;;5016026;28;20504;-58
2022/12/18 06:10:04;;;;;;;50.90;11.60;;;;;;;;;;5017365;28;20487;-59
2022/12/18 06:12:33;;;;;;;47.87;15.17;;;-7.80;81.90;;;;;;5013072;28;20489;-59
2022/12/18 06:15:00;;;;;;;41.23;12.97;;;;;;;;;;5027232;28;20576;-59
2022/12/18 06:17:30;;;;;;;43.67;13.17;;;;;;;;;;5018996;28;20488;-60
2022/12/18 06:19:58;;;;;;;36.87;13.10;;;-7.60;83.00;;;;;;5017218;28;20485;-59
2022/12/18 06:22:25;;;;;;;31.27;12.40;;;-7.60;83.00;;;;;;5022403;28;20592;-60
2022/12/18 06:24:52;;;;;;;42.87;14.90;;;-7.60;82.80;;;;;;5019329;28;20497;-60
2022/12/18 06:27:19;;;;;;;37.57;11.43;;;-7.70;82.70;;;;;;5030235;28;20488;-59
2022/12/18 06:29:46;;;;;;;59.90;18.83;;;-7.60;83.10;;;;;;5028630;28;20487;-60
2022/12/18 06:32:12;;;;;;;27.33;9.87;;;-7.60;82.10;;;;;;5042830;28;21010;-59
2022/12/18 06:34:41;;;;;;;83.90;18.00;;;-7.60;81.50;;;;;;5036715;28;20483;-60
2022/12/18 06:37:08;;;;;;;42.63;13.10;;;;;;;;;;5035350;28;20483;-59
2022/12/18 06:39:35;;;;;;;59.97;18.30;;;;;;;;;;5037078;28;20484;-59
2022/12/18 06:42:01;;;;;;;53.63;16.60;;;-7.60;81.30;;;;;;5037626;28;20476;-59
2022/12/18 06:44:28;;;;;;;58.33;16.43;;;-7.60;81.50;;;;;;5034685;28;20468;-58
2022/12/18 06:46:55;;;;;;;36.40;12.47;;;-7.60;81.30;;;;;;5034873;28;20487;-59
2022/12/18 06:49:21;;;;;;;67.83;15.17;;;-7.60;81.30;;;;;;5026693;28;21005;-59
2022/12/18 06:51:49;;;;;;;67.93;16.50;;;-7.60;81.20;;;;;;5026272;28;20741;-59
2022/12/18 06:54:16;;;;;;;57.50;16.50;;;-7.60;81.10;;;;;;5031638;28;20886;-58
2022/12/18 06:56:43;;;;;;;85.77;21.57;;;-7.60;80.80;;;;;;5025992;28;20719;-58
2022/12/18 06:59:09;;;;;;;39.83;13.80;;;-7.70;80.30;;;;;;5034523;28;20476;-58
2022/12/18 07:01:36;;;;;;;84.57;16.50;;;-7.80;79.90;;;;;;5025460;28;21004;-60
2022/12/18 07:04:03;;;;;;;49.00;14.60;;;-7.80;80.00;;;;;;5032600;28;20475;-59
2022/12/18 07:06:29;;;;;;;46.57;13.70;;;-7.90;79.40;;;;;;5030363;28;20469;-59
2022/12/18 07:08:57;;;;;;;61.63;13.97;;;-8.00;79.40;;;;;;5037373;28;20484;-58
2022/12/18 07:11:25;;;;;;;58.23;15.07;;;;;;;;;;5028136;28;20498;-58
2022/12/18 07:13:53;;;;;;;72.03;17.67;;;-8.40;79.40;;;;;;5025646;28;20538;-58
2022/12/18 07:16:21;;;;;;;42.87;15.57;;;-8.60;79.40;;;;;;5037821;28;20510;-59
2022/12/18 07:18:48;;;;;;;51.60;14.70;;;;;;;;;;5034331;28;20480;-58
2022/12/18 07:21:17;;;;;;;39.00;11.37;;;-8.80;81.80;;;;;;5032021;28;20484;-60
2022/12/18 07:23:47;;;;;;;79.97;20.20;;;;;;;;;;5013384;28;20854;-58
2022/12/18 07:26:17;;;;;;;47.57;15.23;;;-9.00;81.70;;;;;;5021679;28;21013;-60
2022/12/18 07:28:45;;;;;;;76.23;19.90;;;;;;;;;;5017007;28;20819;-59
2022/12/18 07:31:14;;;;;;;50.63;16.50;;;-9.10;83.20;;;;;;5015419;28;20493;-59
2022/12/18 07:33:41;;;;;;;58.00;15.77;;;-9.10;84.50;;;;;;5014912;28;21005;-58
2022/12/18 07:36:10;;;;;;;58.57;13.23;;;-8.90;84.50;;;;;;5017274;28;20884;-59
2022/12/18 07:38:37;;;;;;;75.07;14.13;;;;;;;;;;5015122;28;20600;-58
2022/12/18 07:41:06;;;;;;;52.57;12.93;;;-11.60;80.20;;;;;;5015778;28;20509;-59
2022/12/18 07:43:34;;;;;;;78.17;19.27;;;;;;;;;;5015937;28;20482;-59
2022/12/18 07:46:01;;;;;;;38.27;8.77;;;-8.60;81.40;;;;;;5017447;28;20482;-59
2022/12/18 07:48:28;;;;;;;40.20;13.00;;;-8.70;81.30;;;;;;5020002;28;20497;-58
2022/12/18 07:50:59;;;;;;;53.53;14.07;;;-8.70;81.60;;;;;;5018006;28;20484;-59
2022/12/18 07:53:26;;;;;;;15.40;6.57;;;-8.80;82.70;;;;;;5029094;28;20477;-59
2022/12/18 07:55:56;;;;;;;46.00;13.50;;;-8.80;84.20;;;;;;5026188;28;20828;-59
2022/12/18 07:58:23;;;;;;;48.97;12.80;;;;;;;;;;5026974;28;20492;-59
2022/12/18 08:00:51;;;;;;;48.43;12.97;;;-8.50;85.70;;;;;;5032237;28;20989;-59
2022/12/18 08:03:18;;;;;;;40.33;9.90;;;-8.20;85.90;;;;;;5039886;28;20472;-59
2022/12/18 08:05:45;;;;;;;77.47;19.57;;;-8.00;86.00;;;;;;5038259;28;20492;-58
2022/12/18 08:08:12;;;;;;;47.67;13.70;;;-7.80;85.80;;;;;;5038110;28;21187;-59
2022/12/18 08:10:39;;;;;;;67.17;15.63;;;-7.60;86.20;;;;;;5036565;28;20487;-59
2022/12/18 08:13:06;;;;;;;39.23;12.47;;;-7.40;87.00;;;;;;5038582;28;20575;-59
2022/12/18 08:15:33;;;;;;;43.80;15.50;;;;;;;;;;5026555;28;20520;-59
2022/12/18 08:18:01;;;;;;;55.00;15.67;;;-7.00;88.10;;;;;;5015443;28;20481;-59
2022/12/18 08:20:28;;;;;;;37.03;15.67;;;;;;;;;;5015333;28;20502;-59
2022/12/18 08:22:55;;;;;;;48.97;12.03;;;-6.50;88.80;;;;;;5035560;28;20481;-58
2022/12/18 08:25:22;;;;;;;53.50;13.97;;;;;;;;;;5036406;28;20475;-59
2022/12/18 08:27:49;;;;;;;55.80;15.33;;;-6.20;88.40;;;;;;5016113;28;20485;-59
2022/12/18 08:30:15;;;;;;;35.63;13.23;;;-6.10;88.40;;;;;;5011640;28;20472;-59
2022/12/18 08:32:42;;;;;;;67.17;21.23;;;-5.90;89.20;;;;;;5013865;28;20489;-58
2022/12/18 08:35:11;;;;;;;51.73;18.50;;;-5.80;90.00;;;;;;5017072;28;20480;-59
2022/12/18 08:37:38;;;;;;;66.40;19.57;;;-5.70;90.20;;;;;;5015101;28;20539;-59
2022/12/18 08:40:07;;;;;;;48.23;20.10;;;-5.50;90.30;;;;;;5016450;28;20845;-59
2022/12/18 08:45:19;;;;;;;62.17;23.50;;;-5.20;90.50;;;;;;5016804;28;20548;-59
2022/12/18 08:47:46;;;;;;;55.30;19.53;;;-5.00;90.60;;;;;;5017881;28;20505;-58
2022/12/18 08:50:14;;;;;;;38.47;13.47;;;-4.90;90.80;;;;;;5018856;28;20485;-59
2022/12/18 08:52:41;;;;;;;81.20;23.13;;;-5.00;92.00;;;;;;5014879;28;20493;-59
2022/12/18 08:55:09;;;;;;;55.63;16.67;;;-4.90;92.50;;;;;;5027453;28;20486;-59
2022/12/18 08:57:36;;;;;;;106.00;30.83;;;-5.00;92.30;;;;;;5022112;28;20486;-58
2022/12/18 09:00:03;;;;;;;59.37;21.63;;;-4.80;92.40;;;;;;5018662;28;20481;-59
2022/12/18 09:02:30;;;;;;;58.60;20.27;;;;;;;;;;5018587;28;20489;-59
2022/12/18 09:04:57;;;;;;;56.10;16.17;;;;;;;;;;5020319;28;20484;-59
2022/12/18 09:07:25;;;;;;;44.30;14.13;;;-4.40;92.30;;;;;;5018631;28;20484;-59
2022/12/18 09:09:52;;;;;;;72.57;20.97;;;-4.30;92.40;;;;;;5016864;28;20469;-59
2022/12/18 09:12:19;;;;;;;54.97;20.43;;;-4.20;92.70;;;;;;5015930;28;20493;-59
2022/12/18 09:14:46;;;;;;;51.43;17.90;;;-4.10;92.60;;;;;;5013540;28;20485;-59
2022/12/18 09:17:12;;;;;;;65.17;24.73;;;-4.00;92.50;;;;;;5019476;28;20496;-60
2022/12/18 09:19:39;;;;;;;74.37;21.50;;;-3.80;92.50;;;;;;5029007;28;20488;-59
2022/12/18 09:22:06;;;;;;;53.20;17.70;;;-3.80;92.40;;;;;;5034420;28;20820;-59
2022/12/18 09:24:34;;;;;;;73.97;22.30;;;-3.70;92.40;;;;;;5036049;28;20485;-60
2022/12/18 09:27:01;;;;;;;58.80;18.30;;;-3.60;92.50;;;;;;5023590;28;21124;-60
2022/12/18 09:29:28;;;;;;;69.37;19.03;;;-3.60;92.20;;;;;;5015649;28;20485;-59
2022/12/18 09:31:55;;;;;;;59.30;18.23;;;-3.70;92.30;;;;;;5013755;28;20488;-59
2022/12/18 09:34:21;;;;;;;72.93;20.40;;;-3.70;92.50;;;;;;5015795;28;20488;-59
2022/12/18 09:36:48;;;;;;;44.20;11.13;;;-3.70;92.60;;;;;;5016642;28;20565;-59
2022/12/18 09:39:15;;;;;;;63.13;19.40;;;-3.60;92.90;;;;;;5018235;28;20477;-60
2022/12/18 09:41:47;;;;;;;78.90;24.30;;;-3.50;92.90;;;;;;5017063;28;20567;-58
2022/12/18 09:44:24;;;;;;;70.70;21.07;;;-3.50;92.70;;;;;;5014699;28;20481;-59
2022/12/18 09:46:55;;;;;;;71.13;19.73;;;;;;;;;;5015722;28;20489;-59
2022/12/18 09:49:25;;;;;;;49.27;17.97;;;-3.70;93.10;;;;;;5019373;28;20485;-58
2022/12/18 09:51:55;;;;;;;74.47;19.50;;;-3.60;93.20;;;;;;5017463;28;20496;-58
2022/12/18 09:54:25;;;;;;;71.87;23.87;;;-3.50;93.00;;;;;;5015864;28;20585;-59
2022/12/18 09:56:53;;;;;;;73.57;23.53;;;-3.50;92.70;;;;;;5016610;28;20491;-59
2022/12/18 09:59:25;;;;;;;106.70;30.83;;;-3.60;92.80;;;;;;5013743;28;20723;-58
2022/12/18 10:01:51;;;;;;;47.40;17.47;;;-4.10;93.00;;;;;;5012206;28;20494;-58
2022/12/18 10:04:18;;;;;;;40.67;13.80;;;-3.60;93.50;;;;;;5015514;28;20477;-59
2022/12/18 10:06:53;;;;;;;66.27;18.60;;;-3.40;93.60;;;;;;5014005;28;20512;-60
2022/12/18 10:09:29;;;;;;;36.90;15.10;;;-3.40;93.10;;;;;;5012640;28;20488;-59
2022/12/18 10:12:05;;;;;;;61.67;22.83;;;-3.30;93.60;;;;;;5016721;28;21289;-59
2022/12/18 10:14:35;;;;;;;31.30;10.43;;;;;;;;;;5017964;28;20951;-58
2022/12/18 10:17:10;;;;;;;48.07;17.93;;;-3.20;93.00;;;;;;5019610;28;20468;-59
2022/12/18 10:19:48;;;;;;;53.37;16.87;;;-3.20;93.30;;;;;;5007649;28;20468;-58
2022/12/18 10:22:20;;;;;;;65.23;18.53;;;;;;;;;;5022606;28;20653;-59
2022/12/18 10:24:55;;;;;;;62.47;19.10;;;-3.00;93.10;;;;;;5019778;28;20479;-59
2022/12/18 10:27:26;;;;;;;57.57;23.00;;;-3.10;93.00;;;;;;5021341;28;20513;-59
2022/12/18 10:29:54;;;;;;;91.83;29.40;;;-3.20;93.40;;;;;;5029985;28;20492;-59
2022/12/18 10:32:24;;;;;;;63.57;19.60;;;-3.30;93.10;;;;;;5036065;28;20591;-59
2022/12/18 10:34:54;;;;;;;34.97;6.87;;;-3.10;93.60;;;;;;5041075;28;21161;-59
2022/12/18 10:37:23;;;;;;;56.00;14.57;;;-3.00;93.60;;;;;;5040805;28;20472;-59
2022/12/18 10:40:08;;;;;;;103.07;28.63;;;-2.90;93.40;;;;;;5039433;28;20484;-59
2022/12/18 10:42:37;;;;;;;91.13;23.17;;;-3.10;93.00;;;;;;5004840;28;20477;-60
2022/12/18 10:45:13;;;;;;;73.43;19.10;;;-2.90;93.40;;;;;;5020123;28;21178;-59
2022/12/18 10:47:44;;;;;;;80.83;22.57;;;-2.80;93.70;;;;;;5005872;28;20492;-59
2022/12/18 10:50:21;;;;;;;66.33;16.50;;;-2.60;93.50;;;;;;5032011;28;20485;-59
2022/12/18 10:52:54;;;;;;;69.43;23.07;;;;;;;;;;5027028;28;20561;-59
2022/12/18 10:55:21;;;;;;;58.17;15.47;;;-2.40;93.20;;;;;;5029119;28;20472;-59
2022/12/18 10:57:49;;;;;;;76.13;23.60;;;-2.30;93.10;;;;;;5025668;28;20485;-59
2022/12/18 11:00:24;;;;;;;43.50;11.37;;;-2.30;93.00;;;;;;5025231;28;20928;-59
2022/12/18 11:02:51;;;;;;;60.23;17.50;;;-2.20;93.00;;;;;;5038773;28;20587;-59
2022/12/18 11:05:27;;;;;;;33.40;13.73;;;-2.30;92.50;;;;;;5025405;28;20488;-59
2022/12/18 11:07:55;;;;;;;78.63;24.07;;;;;;;;;;5040813;28;21216;-59
2022/12/18 11:10:24;;;;;;;55.63;16.73;;;-2.30;92.80;;;;;;5040164;28;20495;-59
2022/12/18 11:12:52;;;;;;;66.50;20.20;;;-1.10;93.60;;;;;;5040669;28;21010;-59
2022/12/18 11:15:22;;;;;;;53.20;16.80;;;-2.20;93.00;;;;;;5039060;28;20476;-59
2022/12/18 11:17:51;;;;;;;82.63;23.20;;;-2.20;93.10;;;;;;5036563;28;20472;-59
2022/12/18 11:20:25;;;;;;;32.60;11.30;;;;;;;;;;5036270;28;20514;-60
2022/12/18 11:22:59;;;;;;;67.07;24.80;;;-1.00;93.20;;;;;;5025938;28;20483;-59
2022/12/18 11:25:26;;;;;;;59.77;19.97;;;-2.60;92.80;;;;;;5040249;28;20480;-59
2022/12/18 11:27:58;;;;;;;69.00;17.53;;;-2.20;92.90;;;;;;5030594;28;20488;-59
2022/12/18 11:30:27;;;;;;;38.57;16.00;;;-2.10;93.00;;;;;;5035746;28;20988;-59
2022/12/18 11:32:57;;;;;;;94.87;24.63;;;;;;;;;;5033450;28;20489;-59
2022/12/18 11:35:33;;;;;;;57.73;13.47;;;-0.90;93.50;;;;;;5019981;28;20556;-60
2022/12/18 11:38:05;;;;;;;70.37;23.07;;;-2.20;92.80;;;;;;5029952;28;20485;-58
2022/12/18 11:40:36;;;;;;;45.23;17.90;;;-2.30;93.00;;;;;;5034579;28;20489;-58
2022/12/18 11:43:11;;;;;;;62.13;23.53;;;-2.30;93.00;;;;;;5037377;28;20488;-59
2022/12/18 11:45:45;;;;;;;53.10;15.40;;;-2.30;93.30;;;;;;5034050;28;20475;-59
2022/12/18 11:48:17;;;;;;;54.20;19.77;;;-2.10;93.50;;;;;;5035700;28;20476;-59
2022/12/18 11:50:48;;;;;;;58.20;20.47;;;;;;;;;;5019493;28;20914;-59
2022/12/18 11:53:15;;;;;;;53.40;19.30;;;;;;;;;;5029271;28;21105;-60
2022/12/18 11:55:50;;;;;;;79.23;25.60;;;-2.00;93.50;;;;;;5038745;28;20491;-59
2022/12/18 11:58:24;;;;;;;48.10;11.97;;;;;;;;;;5027060;28;20492;-60
2022/12/18 12:00:57;;;;;;;67.40;17.53;;;;;;;;;;5021710;28;20473;-60
2022/12/18 12:03:47;;;;;;;55.90;19.70;;;-1.70;93.50;;;;;;5024156;28;21563;-59
2022/12/18 12:06:22;;;;;;;88.43;23.70;;;-1.60;93.60;;;;;;5027363;28;20507;-60
2022/12/18 12:09:05;;;;;;;85.63;21.37;;;-1.70;93.10;;;;;;5036350;28;20472;-60
2022/12/18 12:11:36;;;;;;;66.23;23.00;;;;;;;;;;5028069;28;20472;-59
2022/12/18 12:14:26;;;;;;;56.80;16.10;;;-1.60;93.00;;;;;;5033873;28;20725;-60
2022/12/18 12:16:59;;;;;;;57.70;15.73;;;-1.50;93.40;;;;;;5021922;28;20501;-59
2022/12/18 12:19:39;;;;;;;62.73;17.23;;;-1.50;93.20;;;;;;5036166;28;20484;-59
2022/12/18 12:22:14;;;;;;;63.30;17.50;;;-1.40;93.00;;;;;;5034989;28;20499;-60
2022/12/18 12:24:51;;;;;;;121.83;26.77;;;-1.40;93.20;;;;;;5025941;28;20460;-60
2022/12/18 12:27:24;;;;;;;59.77;15.50;;;-1.40;93.10;;;;;;5016879;28;20467;-59
2022/12/18 12:29:58;;;;;;;61.30;17.90;;;;;;;;;;5008413;28;20473;-59
2022/12/18 12:32:46;;;;;;;38.57;14.70;;;0.00;93.70;;;;;;5024390;28;20884;-60
2022/12/18 12:35:24;;;;;;;56.13;18.93;;;-1.40;92.90;;;;;;5032355;28;21014;-59
2022/12/18 12:38:04;;;;;;;79.97;23.83;;;-1.20;93.60;;;;;;4993696;28;20890;-59
2022/12/18 12:40:35;;;;;;;62.07;24.30;;;-1.10;93.50;;;;;;5008957;28;20480;-60
2022/12/18 12:43:13;;;;;;;74.97;27.53;;;-1.00;93.20;;;;;;5005632;28;20532;-60
2022/12/18 12:45:46;;;;;;;83.43;26.80;;;-1.00;93.20;;;;;;5013465;28;20530;-60
2022/12/18 12:48:17;;;;;;;86.63;24.20;;;;;;;;;;5011208;28;20923;-60
2022/12/18 12:50:45;;;;;;;60.87;21.83;;;-1.00;93.00;;;;;;5009428;28;21119;-60
2022/12/18 12:53:23;;;;;;;29.13;10.30;;;1.20;93.80;;;;;;5009837;28;20474;-59
2022/12/18 12:55:50;;;;;;;73.90;22.50;;;;;;;;;;5014169;28;20922;-60
2022/12/18 12:58:24;;;;;;;57.60;18.83;;;-1.00;93.30;;;;;;5030303;28;20483;-60
2022/12/18 13:01:00;;;;;;;67.47;23.50;;;-0.90;93.10;;;;;;5003774;28;20484;-59
2022/12/18 13:03:40;;;;;;;43.90;15.93;;;-1.00;92.90;;;;;;5021458;28;20522;-59
2022/12/18 13:06:17;;;;;;;55.80;20.77;;;-1.20;92.80;;;;;;5017437;28;21005;-59
2022/12/18 13:08:56;;;;;;;98.53;27.10;;;-1.20;93.20;;;;;;5009917;28;21129;-59